createdAt,value
2022-08-14T00:00:43.686Z,16
2022-08-14T00:03:13.817Z,15
2022-08-14T00:05:44.279Z,18
2022-08-14T00:08:14.722Z,13
2022-08-14T00:10:52.533Z,16
2022-08-14T00:13:15.089Z,17
2022-08-14T00:15:48.297Z,15
2022-08-14T00:18:30.927Z,13
2022-08-14T00:20:46.227Z,16
2022-08-14T00:23:17.604Z,17
2022-08-14T00:25:59.135Z,16
2022-08-14T00:28:17.847Z,16
2022-08-14T00:30:47.055Z,14
2022-08-14T00:33:17.292Z,17
2022-08-14T00:36:36.152Z,16
2022-08-14T00:38:17.642Z,15
2022-08-14T00:40:48.484Z,14
2022-08-14T00:43:18.620Z,15
2022-08-14T00:45:51.510Z,16
2022-08-14T00:48:34.337Z,17
2022-08-14T00:50:49.227Z,16
2022-08-14T00:53:19.499Z,18
2022-08-14T00:55:49.706Z,17
2022-08-14T00:58:19.956Z,17
2022-08-14T01:00:51.460Z,16
2022-08-14T01:03:20.813Z,18
2022-08-14T01:05:52.291Z,18
2022-08-14T01:08:51.856Z,17
2022-08-14T01:10:51.727Z,19
2022-08-14T01:13:22.564Z,16
2022-08-14T01:15:58.268Z,20
2022-08-14T01:18:23.067Z,17
2022-08-14T01:20:53.281Z,18
2022-08-14T01:23:23.558Z,17
2022-08-14T01:25:53.823Z,18
2022-08-14T01:28:47.087Z,18
2022-08-14T01:30:55.467Z,19
2022-08-14T01:33:25.739Z,17
2022-08-14T01:36:04.579Z,17
2022-08-14T01:38:26.403Z,20
2022-08-14T01:40:57.109Z,18
2022-08-14T01:43:27.345Z,19
2022-08-14T01:46:06.604Z,16
2022-08-14T01:48:28.443Z,19
2022-08-14T01:50:58.635Z,19
2022-08-14T01:53:33.411Z,19
2022-08-14T01:55:59.708Z,18
2022-08-14T01:58:30.036Z,18
2022-08-14T02:01:00.283Z,21
2022-08-14T02:03:31.062Z,18
2022-08-14T02:06:03.938Z,17
2022-08-14T02:08:35.072Z,19
2022-08-14T02:11:01.322Z,18
2022-08-14T02:13:31.564Z,20
2022-08-14T02:16:22.009Z,18
2022-08-14T02:18:32.821Z,21
2022-08-14T02:21:02.925Z,19
2022-08-14T02:23:36.384Z,17
2022-08-14T02:26:24.719Z,18
2022-08-14T02:28:56.657Z,18
2022-08-14T02:31:04.478Z,19
2022-08-14T02:33:38.982Z,19
2022-08-14T02:37:03.453Z,19
2022-08-14T02:38:36.529Z,20
2022-08-14T02:41:09.016Z,19
2022-08-14T02:43:48.180Z,20
2022-08-14T02:46:07.767Z,19
2022-08-14T02:49:02.532Z,19
2022-08-14T02:51:09.064Z,20
2022-08-14T02:53:38.636Z,19
2022-08-14T02:56:30.912Z,20
2022-08-14T02:58:42.454Z,20
2022-08-14T03:01:10.588Z,19
2022-08-14T03:03:41.395Z,21
2022-08-14T03:06:11.619Z,21
2022-08-14T03:08:45.908Z,18
2022-08-14T03:11:12.148Z,22
2022-08-14T03:13:43.003Z,20
2022-08-14T03:16:20.276Z,23
2022-08-14T03:18:43.595Z,20
2022-08-14T03:21:13.775Z,19
2022-08-14T03:23:44.182Z,19
2022-08-14T03:26:18.291Z,18
2022-08-14T03:28:44.948Z,19
2022-08-14T03:31:15.223Z,21
2022-08-14T03:33:45.555Z,21
2022-08-14T03:37:38.259Z,19
2022-08-14T03:39:15.529Z,20
2022-08-14T03:41:16.843Z,25
2022-08-14T03:43:47.151Z,22
2022-08-14T03:46:52.359Z,21
2022-08-14T03:48:47.565Z,21
2022-08-14T03:51:17.758Z,21
2022-08-14T03:53:47.973Z,22
2022-08-14T03:56:21.229Z,21
2022-08-14T03:58:48.262Z,22
2022-08-14T04:01:19.164Z,22
2022-08-14T04:03:49.436Z,22
2022-08-14T04:06:21.059Z,19
2022-08-14T04:08:50.537Z,22
2022-08-14T04:11:21.177Z,19
2022-08-14T04:13:51.985Z,20
2022-08-14T04:16:22.259Z,20
2022-08-14T04:18:53.148Z,21
2022-08-14T04:21:23.966Z,21
2022-08-14T04:23:57.094Z,23
2022-08-14T04:26:26.937Z,20
2022-08-14T04:29:07.632Z,18
2022-08-14T04:32:57.439Z,21
2022-08-14T04:33:56.065Z,22
2022-08-14T04:36:26.051Z,22
2022-08-14T04:38:57.305Z,22
2022-08-14T04:41:30.410Z,20
2022-08-14T04:43:57.340Z,24
2022-08-14T04:46:55.263Z,19
2022-08-14T04:49:00.192Z,20
2022-08-14T04:51:30.030Z,21
2022-08-14T04:53:59.966Z,20
2022-08-14T04:56:34.133Z,19
2022-08-14T04:59:01.422Z,21
2022-08-14T05:01:39.539Z,21
2022-08-14T05:04:02.019Z,23
2022-08-14T05:06:38.945Z,22
2022-08-14T05:09:02.849Z,18
2022-08-14T05:11:33.065Z,22
2022-08-14T05:14:34.573Z,20
2022-08-14T05:16:33.922Z,23
2022-08-14T05:19:18.059Z,20
2022-08-14T05:21:59.658Z,24
2022-08-14T05:24:05.977Z,26
2022-08-14T05:26:36.649Z,22
2022-08-14T05:29:06.695Z,20
2022-08-14T05:31:40.473Z,22
2022-08-14T05:34:07.271Z,19
2022-08-14T05:36:37.728Z,19
2022-08-14T05:39:08.265Z,24
2022-08-14T05:41:53.963Z,23
2022-08-14T05:44:08.254Z,23
2022-08-14T05:46:39.151Z,25
2022-08-14T05:49:09.431Z,20
2022-08-14T05:51:39.680Z,23
2022-08-14T05:54:26.547Z,21
2022-08-14T05:56:40.500Z,23
2022-08-14T05:59:11.192Z,28
2022-08-14T06:01:42.080Z,21
2022-08-14T06:04:12.801Z,23
2022-08-14T06:06:43.280Z,22
2022-08-14T06:09:13.605Z,22
2022-08-14T06:11:44.054Z,22
2022-08-14T06:14:21.465Z,21
2022-08-14T06:16:45.104Z,23
2022-08-14T06:19:18.381Z,20
2022-08-14T06:21:46.324Z,22
2022-08-14T06:24:18.053Z,24
2022-08-14T06:26:51.915Z,21
2022-08-14T06:29:17.846Z,20
2022-08-14T06:31:54.466Z,23
2022-08-14T06:35:03.561Z,25
2022-08-14T06:36:49.737Z,22
2022-08-14T06:39:23.230Z,20
2022-08-14T06:41:58.042Z,20
2022-08-14T06:44:22.230Z,22
2022-08-14T06:46:52.475Z,20
2022-08-14T06:49:22.882Z,19
2022-08-14T06:51:53.856Z,22
2022-08-14T06:54:23.403Z,21
2022-08-14T06:56:54.446Z,21
2022-08-14T06:59:24.313Z,25
2022-08-14T07:01:56.539Z,20
2022-08-14T07:04:25.240Z,22
2022-08-14T07:06:58.411Z,28
2022-08-14T07:09:25.897Z,22
2022-08-14T07:11:56.502Z,19
2022-08-14T07:14:26.619Z,20
2022-08-14T07:16:57.498Z,22
2022-08-14T07:19:28.233Z,21
2022-08-14T07:21:58.200Z,33
2022-08-14T07:24:31.300Z,25
2022-08-14T07:26:58.592Z,21
2022-08-14T07:29:29.312Z,22
2022-08-14T07:31:59.745Z,22
2022-08-14T07:34:40.980Z,20
2022-08-14T07:37:01.075Z,21
2022-08-14T07:39:30.734Z,21
2022-08-14T07:42:00.952Z,20
2022-08-14T07:44:45.980Z,20
2022-08-14T07:47:01.689Z,23
2022-08-14T07:49:32.366Z,20
2022-08-14T07:52:03.333Z,19
2022-08-14T07:54:33.225Z,20
2022-08-14T07:57:11.881Z,20
2022-08-14T07:59:42.305Z,20
2022-08-14T08:02:04.979Z,21
2022-08-14T08:04:35.102Z,19
2022-08-14T08:07:05.633Z,20
2022-08-14T08:09:35.742Z,18
2022-08-14T08:12:09.265Z,21
2022-08-14T08:14:56.578Z,21
2022-08-14T08:17:06.828Z,18
2022-08-14T08:19:37.627Z,26
2022-08-14T08:22:07.763Z,18
2022-08-14T08:24:37.977Z,22
2022-08-14T08:27:08.697Z,20
2022-08-14T08:29:39.475Z,21
2022-08-14T08:32:10.198Z,21
2022-08-14T08:34:40.688Z,19
2022-08-14T08:37:10.867Z,20
2022-08-14T08:40:01.515Z,20
2022-08-14T08:42:11.708Z,21
2022-08-14T08:44:41.832Z,20
2022-08-14T08:47:12.530Z,21
2022-08-14T08:49:49.943Z,18
2022-08-14T08:52:15.193Z,23
2022-08-14T08:54:43.444Z,21
2022-08-14T08:57:15.656Z,26
2022-08-14T08:59:44.952Z,22
2022-08-14T09:02:15.641Z,22
2022-08-14T09:04:53.723Z,22
2022-08-14T09:07:16.500Z,20
2022-08-14T09:09:54.578Z,19
2022-08-14T09:12:16.823Z,18
2022-08-14T09:14:47.520Z,20
2022-08-14T09:17:17.652Z,22
2022-08-14T09:19:48.133Z,22
2022-08-14T09:22:35.743Z,21
2022-08-14T09:24:48.875Z,23
2022-08-14T09:27:22.794Z,21
2022-08-14T09:29:54.199Z,22
2022-08-14T09:32:58.023Z,23
2022-08-14T09:34:58.038Z,20
2022-08-14T09:37:20.644Z,16
2022-08-14T09:39:51.438Z,18
2022-08-14T09:42:33.225Z,18
2022-08-14T09:44:51.597Z,17
2022-08-14T09:47:22.266Z,18
2022-08-14T09:49:53.488Z,18
2022-08-14T09:52:33.184Z,17
2022-08-14T09:54:53.492Z,16
2022-08-14T09:57:23.615Z,15
2022-08-14T09:59:53.717Z,17
2022-08-14T10:02:23.874Z,17
2022-08-14T10:04:53.985Z,17
2022-08-14T10:07:24.290Z,17
2022-08-14T10:10:00.023Z,15
2022-08-14T10:12:28.777Z,15
2022-08-14T10:14:55.482Z,14
2022-08-14T10:17:26.059Z,16
2022-08-14T10:19:58.189Z,16
2022-08-14T10:23:12.425Z,14
2022-08-14T10:24:57.444Z,14
2022-08-14T10:27:28.150Z,11
2022-08-14T10:29:58.215Z,13
2022-08-14T10:32:36.319Z,14
2022-08-14T10:34:58.332Z,14
2022-08-14T10:37:28.901Z,13
2022-08-14T10:40:01.560Z,12
2022-08-14T10:42:29.663Z,13
2022-08-14T10:45:00.229Z,11
2022-08-14T10:47:41.288Z,14
2022-08-14T10:50:00.374Z,15
2022-08-14T10:52:30.444Z,12
2022-08-14T10:55:00.489Z,13
2022-08-14T10:57:30.518Z,14
2022-08-14T11:00:00.577Z,14
2022-08-14T11:02:45.346Z,13
2022-08-14T11:05:01.160Z,15
2022-08-14T11:07:30.788Z,15
2022-08-14T11:10:00.823Z,13
2022-08-14T11:12:33.944Z,16
2022-08-14T11:15:02.405Z,16
2022-08-14T11:17:31.848Z,17
2022-08-14T11:20:00.960Z,22
2022-08-14T11:22:56.391Z,18
2022-08-14T11:25:01.188Z,23
2022-08-14T11:27:33.235Z,23
2022-08-14T11:30:49.832Z,18
2022-08-14T11:32:31.725Z,32
2022-08-14T11:35:01.991Z,18
2022-08-14T11:37:40.638Z,32
2022-08-14T11:40:02.687Z,16
2022-08-14T11:43:07.985Z,12
2022-08-14T11:45:04.178Z,17
2022-08-14T11:47:35.354Z,14
2022-08-14T11:50:04.957Z,16
2022-08-14T11:52:33.822Z,16
2022-08-14T11:55:03.871Z,16
2022-08-14T11:57:33.862Z,17
2022-08-14T12:00:03.909Z,17
2022-08-14T12:03:01.162Z,16
2022-08-14T12:05:04.428Z,15
2022-08-14T12:07:33.938Z,15
2022-08-14T12:10:26.765Z,15
2022-08-14T12:12:47.270Z,17
2022-08-14T12:15:04.100Z,15
2022-08-14T12:17:47.364Z,17
2022-08-14T12:20:04.665Z,14
2022-08-14T12:22:34.697Z,17
2022-08-14T12:25:10.009Z,14
2022-08-14T12:27:35.236Z,18
2022-08-14T12:30:06.078Z,26
2022-08-14T12:32:36.621Z,36
2022-08-14T12:35:06.853Z,74
2022-08-14T12:37:37.026Z,44
2022-08-14T12:40:07.163Z,26
2022-08-14T12:42:39.663Z,87
2022-08-14T12:45:07.968Z,103
2022-08-14T12:47:37.972Z,29
2022-08-14T12:50:08.282Z,25
2022-08-14T12:52:45.376Z,32
2022-08-14T12:55:08.643Z,25
2022-08-14T12:57:38.692Z,30
2022-08-14T13:00:22.472Z,26
2022-08-14T13:02:39.417Z,29
2022-08-14T13:05:10.134Z,25
2022-08-14T13:07:40.725Z,19
2022-08-14T13:10:46.095Z,28
2022-08-14T13:13:03.071Z,30
2022-08-14T13:15:10.820Z,26
2022-08-14T13:17:40.884Z,26
2022-08-14T13:20:24.579Z,24
2022-08-14T13:22:42.589Z,24
2022-08-14T13:25:11.623Z,26
2022-08-14T13:27:42.193Z,17
2022-08-14T13:30:21.432Z,15
2022-08-14T13:32:43.077Z,15
2022-08-14T13:35:16.376Z,15
2022-08-14T13:37:43.359Z,21
2022-08-14T13:40:13.503Z,19
2022-08-14T13:42:43.666Z,17
2022-08-14T13:45:13.981Z,16
2022-08-14T13:47:45.428Z,15
2022-08-14T13:50:15.152Z,15
2022-08-14T13:52:51.438Z,14
2022-08-14T13:55:15.756Z,16
2022-08-14T13:57:49.622Z,15
2022-08-14T14:00:18.057Z,15
2022-08-14T14:02:46.565Z,14
2022-08-14T14:05:16.367Z,14
2022-08-14T14:07:46.938Z,16
2022-08-14T14:10:16.959Z,14
2022-08-14T14:12:56.183Z,18
2022-08-14T14:15:17.717Z,14
2022-08-14T14:17:47.549Z,14
2022-08-14T14:20:35.797Z,13
2022-08-14T14:23:01.894Z,13
2022-08-14T14:25:19.286Z,15
2022-08-14T14:27:48.219Z,11
2022-08-14T14:30:51.828Z,11
2022-08-14T14:33:01.864Z,13
2022-08-14T14:35:18.426Z,12
2022-08-14T14:37:48.887Z,14
2022-08-14T14:40:52.865Z,17
2022-08-14T14:42:51.870Z,16
2022-08-14T14:45:19.600Z,14
2022-08-14T14:47:49.519Z,14
2022-08-14T14:50:19.584Z,14
2022-08-14T14:52:49.588Z,14
2022-08-14T14:55:19.641Z,17
2022-08-14T14:57:52.093Z,13
2022-08-14T15:00:19.881Z,16
2022-08-14T15:02:51.600Z,13
2022-08-14T15:05:20.374Z,16
2022-08-14T15:07:50.856Z,16
2022-08-14T15:10:27.292Z,13
2022-08-14T15:12:55.998Z,14
2022-08-14T15:15:22.057Z,15
2022-08-14T15:17:54.791Z,15
2022-08-14T15:20:30.910Z,13
2022-08-14T15:22:53.237Z,16
2022-08-14T15:25:23.352Z,20
2022-08-14T15:27:54.584Z,25
2022-08-14T15:30:32.050Z,16
2022-08-14T15:32:54.011Z,20
2022-08-14T15:35:25.703Z,26
2022-08-14T15:37:55.853Z,26
2022-08-14T15:40:25.400Z,18
2022-08-14T15:42:55.340Z,26
2022-08-14T15:45:25.397Z,25
2022-08-14T15:47:55.442Z,25
2022-08-14T15:50:25.549Z,26
2022-08-14T15:52:55.605Z,30
2022-08-14T15:55:25.720Z,32
2022-08-14T15:58:03.593Z,33
2022-08-14T16:00:40.467Z,15
2022-08-14T16:02:56.535Z,24
2022-08-14T16:05:27.192Z,15
2022-08-14T16:07:57.199Z,27
2022-08-14T16:10:29.636Z,29
2022-08-14T16:12:57.381Z,31
2022-08-14T16:15:28.055Z,22
2022-08-14T16:17:58.117Z,26
2022-08-14T16:20:41.505Z,28
2022-08-14T16:23:00.580Z,31
2022-08-14T16:25:34.364Z,20
2022-08-14T16:27:58.913Z,26
2022-08-14T16:30:29.019Z,30
2022-08-14T16:32:59.494Z,27
2022-08-14T16:35:42.265Z,21
2022-08-14T16:37:59.772Z,23
2022-08-14T16:40:29.992Z,22
2022-08-14T16:43:04.357Z,26
2022-08-14T16:45:30.009Z,43
2022-08-14T16:48:00.697Z,27
2022-08-14T16:50:43.329Z,81
2022-08-14T16:53:01.371Z,76
2022-08-14T16:55:31.530Z,27
2022-08-14T16:58:02.300Z,21
2022-08-14T17:00:43.936Z,24
2022-08-14T17:03:03.662Z,19
2022-08-14T17:05:34.141Z,71
2022-08-14T17:08:28.611Z,22
2022-08-14T17:10:35.093Z,23
2022-08-14T17:13:05.780Z,23
2022-08-14T17:15:35.862Z,19
2022-08-14T17:18:06.306Z,60
2022-08-14T17:21:02.002Z,50
2022-08-14T17:23:10.751Z,37
2022-08-14T17:25:37.451Z,94
2022-08-14T17:28:51.801Z,24
2022-08-14T17:30:38.407Z,47
2022-08-14T17:33:08.718Z,19
2022-08-14T17:35:57.394Z,20
2022-08-14T17:38:08.609Z,24
2022-08-14T17:40:39.206Z,38
2022-08-14T17:43:09.356Z,25
2022-08-14T17:45:41.541Z,36
2022-08-14T17:49:10.729Z,20
2022-08-14T17:50:55.120Z,23
2022-08-14T17:53:11.471Z,27
2022-08-14T17:56:01.938Z,23
2022-08-14T17:58:20.682Z,22
2022-08-14T18:00:43.202Z,25
2022-08-14T18:03:18.608Z,24
2022-08-14T18:06:08.601Z,23
2022-08-14T18:08:33.334Z,43
2022-08-14T18:10:55.565Z,26
2022-08-14T18:13:14.463Z,23
2022-08-14T18:15:44.822Z,29
2022-08-14T18:18:16.142Z,29
2022-08-14T18:21:23.494Z,31
2022-08-14T18:23:15.602Z,27
2022-08-14T18:25:45.604Z,48
2022-08-14T18:28:18.333Z,58
2022-08-14T18:30:58.719Z,107
2022-08-14T18:33:16.867Z,97
2022-08-14T18:35:58.149Z,113
2022-08-14T18:38:25.844Z,160
2022-08-14T18:40:47.905Z,194
2022-08-14T18:43:18.097Z,122
2022-08-14T18:45:48.763Z,56
2022-08-14T18:48:20.038Z,46
2022-08-14T18:50:52.596Z,16
2022-08-14T18:53:19.753Z,13
2022-08-14T18:55:53.692Z,11
2022-08-14T18:58:28.259Z,14
2022-08-14T19:00:51.254Z,14
2022-08-14T19:03:22.579Z,13
2022-08-14T19:05:50.010Z,12
2022-08-14T19:08:24.975Z,13
2022-08-14T19:10:50.945Z,11
2022-08-14T19:13:22.069Z,13
2022-08-14T19:15:56.126Z,12
2022-08-14T19:18:26.539Z,12
2022-08-14T19:20:53.296Z,14
2022-08-14T19:23:22.909Z,12
2022-08-14T19:25:52.989Z,13
2022-08-14T19:28:31.241Z,13
2022-08-14T19:30:57.997Z,12
2022-08-14T19:33:23.166Z,14
2022-08-14T19:35:55.647Z,14
2022-08-14T19:38:32.362Z,14
2022-08-14T19:40:54.505Z,12
2022-08-14T19:43:55.197Z,14
2022-08-14T19:45:54.681Z,13
2022-08-14T19:48:24.734Z,16
2022-08-14T19:50:55.081Z,14
2022-08-14T19:53:24.900Z,14
2022-08-14T19:55:55.072Z,13
2022-08-14T19:58:28.106Z,12
2022-08-14T20:00:55.714Z,14
2022-08-14T20:03:25.766Z,15
2022-08-14T20:05:57.546Z,13
2022-08-14T20:11:01.259Z,15
2022-08-14T20:11:04.632Z,16
2022-08-14T20:13:32.746Z,12
2022-08-14T20:15:56.317Z,13
2022-08-14T20:18:48.744Z,13
2022-08-14T20:20:57.109Z,13
2022-08-14T20:23:27.185Z,14
2022-08-14T20:25:58.508Z,16
2022-08-14T20:28:30.040Z,13
2022-08-14T20:30:58.636Z,14
2022-08-14T20:33:28.308Z,13
2022-08-14T20:35:58.899Z,14
2022-08-14T20:38:31.458Z,15
2022-08-14T20:40:59.133Z,11
2022-08-14T20:43:35.354Z,15
2022-08-14T20:45:59.380Z,17
2022-08-14T20:48:52.814Z,14
2022-08-14T20:50:59.657Z,14
2022-08-14T20:53:31.650Z,14
2022-08-14T20:56:03.543Z,16
2022-08-14T20:58:43.351Z,13
2022-08-14T21:01:00.802Z,16
2022-08-14T21:03:31.404Z,16
2022-08-14T21:06:01.566Z,16
2022-08-14T21:08:31.659Z,15
2022-08-14T21:11:01.805Z,13
2022-08-14T21:14:26.954Z,14
2022-08-14T21:16:02.170Z,15
2022-08-14T21:18:32.190Z,15
2022-08-14T21:21:06.750Z,16
2022-08-14T21:23:33.135Z,16
2022-08-14T21:26:05.455Z,14
2022-08-14T21:28:35.099Z,16
2022-08-14T21:31:04.061Z,15
2022-08-14T21:33:34.189Z,14
2022-08-14T21:36:07.563Z,16
2022-08-14T21:38:34.762Z,13
2022-08-14T21:41:43.130Z,15
2022-08-14T21:43:34.797Z,13
2022-08-14T21:46:05.047Z,16
2022-08-14T21:48:35.828Z,14
2022-08-14T21:51:52.855Z,15
2022-08-14T21:53:35.388Z,14
2022-08-14T21:56:05.567Z,15
2022-08-14T21:58:53.211Z,16
2022-08-14T22:01:06.518Z,15
2022-08-14T22:03:39.592Z,17
2022-08-14T22:06:06.820Z,17
2022-08-14T22:08:36.925Z,15
2022-08-14T22:11:07.691Z,16
2022-08-14T22:13:46.503Z,15
2022-08-14T22:16:08.586Z,12
2022-08-14T22:18:38.862Z,16
2022-08-14T22:21:17.136Z,17
2022-08-14T22:23:39.697Z,18
2022-08-14T22:26:10.435Z,16
2022-08-14T22:28:44.862Z,16
2022-08-14T22:31:10.999Z,16
2022-08-14T22:33:43.016Z,15
2022-08-14T22:36:11.229Z,13
2022-08-14T22:38:50.051Z,16
2022-08-14T22:41:26.861Z,15
2022-08-14T22:43:42.793Z,15
2022-08-14T22:46:15.455Z,13
2022-08-14T22:48:44.504Z,14
2022-08-14T22:51:14.115Z,17
2022-08-14T22:53:44.060Z,15
2022-08-14T22:56:20.267Z,14
2022-08-14T22:58:44.408Z,15
2022-08-14T23:01:14.620Z,19
2022-08-14T23:03:44.820Z,17
2022-08-14T23:07:02.471Z,16
2022-08-14T23:08:59.939Z,16
2022-08-14T23:11:16.146Z,17
2022-08-14T23:13:46.647Z,15
2022-08-14T23:16:19.667Z,16
2022-08-14T23:18:47.003Z,15
2022-08-14T23:21:17.828Z,14
2022-08-14T23:23:47.927Z,14
2022-08-14T23:26:49.847Z,13
2022-08-14T23:28:56.551Z,15
2022-08-14T23:31:34.985Z,15
2022-08-14T23:33:53.215Z,17
2022-08-14T23:36:32.681Z,14
2022-08-14T23:38:49.320Z,16
2022-08-14T23:41:19.543Z,16
2022-08-14T23:43:49.782Z,18
2022-08-14T23:46:20.501Z,14
2022-08-14T23:48:50.713Z,19
2022-08-14T23:51:20.995Z,18
2022-08-14T23:53:51.348Z,14
2022-08-14T23:56:30.360Z,15
2022-08-14T23:58:52.098Z,17
